createdAt,value
2022-12-20T00:02:24.795Z,48.70
2022-12-20T00:04:55.337Z,45.43
2022-12-20T00:07:27.479Z,44.83
2022-12-20T00:09:57.916Z,51.23
2022-12-20T00:12:28.950Z,50.80
2022-12-20T00:14:59.201Z,45.17
2022-12-20T00:17:29.301Z,44.43
2022-12-20T00:19:59.515Z,48.50
2022-12-20T00:22:29.730Z,46.23
2022-12-20T00:24:59.302Z,43.00
2022-12-20T00:27:31.746Z,43.90
2022-12-20T00:30:03.459Z,46.50
2022-12-20T00:32:34.166Z,46.90
2022-12-20T00:35:03.960Z,39.20
2022-12-20T00:37:34.231Z,41.33
2022-12-20T00:40:05.241Z,46.47
2022-12-20T00:42:36.279Z,43.60
2022-12-20T00:45:06.609Z,43.50
2022-12-20T00:47:37.113Z,45.67
2022-12-20T00:50:08.923Z,36.63
2022-12-20T00:52:39.104Z,45.33
2022-12-20T00:55:09.459Z,43.13
2022-12-20T00:57:40.783Z,43.73
2022-12-20T01:00:11.936Z,46.17
2022-12-20T01:02:42.091Z,49.87
2022-12-20T01:05:12.890Z,46.30
2022-12-20T01:07:42.610Z,49.43
2022-12-20T01:10:13.713Z,41.97
2022-12-20T01:12:45.132Z,51.10
2022-12-20T01:15:16.482Z,41.97
2022-12-20T01:17:46.749Z,55.13
2022-12-20T01:20:17.218Z,46.67
2022-12-20T01:22:48.608Z,43.93
2022-12-20T01:25:18.555Z,55.67
2022-12-20T01:27:50.414Z,43.80
2022-12-20T01:30:20.503Z,53.97
2022-12-20T01:32:50.211Z,50.80
2022-12-20T01:35:20.034Z,49.90
2022-12-20T01:37:50.373Z,49.53
2022-12-20T01:40:20.308Z,48.37
2022-12-20T01:42:51.718Z,50.03
2022-12-20T01:45:28.891Z,48.47
2022-12-20T01:47:59.431Z,51.63
2022-12-20T01:50:29.596Z,53.57
2022-12-20T01:53:00.343Z,56.93
2022-12-20T01:55:30.926Z,41.37
2022-12-20T01:58:05.438Z,48.20
2022-12-20T02:00:35.395Z,42.97
2022-12-20T02:03:08.398Z,49.60
2022-12-20T02:05:39.683Z,52.03
2022-12-20T02:08:10.055Z,46.23
2022-12-20T02:11:02.275Z,53.57
2022-12-20T02:13:39.009Z,49.07
2022-12-20T02:16:09.122Z,44.77
2022-12-20T02:18:43.873Z,46.77
2022-12-20T02:21:30.939Z,53.07
2022-12-20T02:24:21.209Z,47.73
2022-12-20T02:27:24.912Z,47.07
2022-12-20T02:30:11.866Z,48.07
2022-12-20T02:32:46.407Z,51.77
2022-12-20T02:35:20.859Z,49.90
2022-12-20T02:37:52.758Z,45.27
2022-12-20T02:40:26.388Z,42.53
2022-12-20T02:42:59.759Z,48.93
2022-12-20T02:45:34.344Z,45.40
2022-12-20T02:48:07.319Z,49.00
2022-12-20T02:50:40.508Z,45.70
2022-12-20T02:53:10.999Z,51.10
2022-12-20T02:55:45.618Z,47.43
2022-12-20T02:58:20.499Z,44.13
2022-12-20T03:00:52.802Z,49.47
2022-12-20T03:03:26.078Z,47.80
2022-12-20T03:05:57.260Z,46.17
2022-12-20T03:08:27.599Z,54.00
2022-12-20T03:10:58.331Z,53.70
2022-12-20T03:13:28.780Z,42.97
2022-12-20T03:16:00.253Z,49.70
2022-12-20T03:18:30.120Z,46.07
2022-12-20T03:21:00.284Z,47.63
2022-12-20T03:23:30.084Z,47.40
2022-12-20T03:26:00.256Z,43.77
2022-12-20T03:28:30.610Z,43.37
2022-12-20T03:31:02.374Z,44.80
2022-12-20T03:33:32.251Z,50.90
2022-12-20T03:36:02.530Z,37.33
2022-12-20T03:38:32.207Z,47.57
2022-12-20T03:41:01.933Z,46.43
2022-12-20T03:43:31.935Z,49.23
2022-12-20T03:46:04.078Z,42.10
2022-12-20T03:48:34.781Z,51.13
2022-12-20T03:51:05.102Z,51.87
2022-12-20T03:53:34.833Z,38.30
2022-12-20T03:56:04.180Z,48.00
2022-12-20T03:58:33.457Z,49.47
2022-12-20T04:01:05.234Z,49.27
2022-12-20T04:03:35.386Z,37.63
2022-12-20T04:06:06.028Z,49.70
2022-12-20T04:08:36.568Z,54.57
2022-12-20T04:11:17.872Z,52.60
2022-12-20T04:13:48.868Z,49.27
2022-12-20T04:16:21.438Z,51.40
2022-12-20T04:18:52.047Z,49.57
2022-12-20T04:21:25.322Z,45.53
2022-12-20T04:23:55.068Z,50.40
2022-12-20T04:26:25.068Z,52.83
2022-12-20T04:28:55.942Z,52.40
2022-12-20T04:31:27.342Z,46.37
2022-12-20T04:33:57.809Z,51.17
2022-12-20T04:36:27.906Z,50.23
2022-12-20T04:38:57.655Z,51.97
2022-12-20T04:41:27.298Z,44.80
2022-12-20T04:43:58.959Z,51.77
2022-12-20T04:46:30.785Z,38.80
2022-12-20T04:49:01.213Z,56.57
2022-12-20T04:51:31.135Z,39.03
2022-12-20T04:54:00.441Z,40.30
2022-12-20T04:56:31.138Z,52.07
2022-12-20T04:59:02.864Z,49.33
2022-12-20T05:01:34.766Z,45.97
2022-12-20T05:04:05.796Z,47.40
2022-12-20T05:06:36.727Z,50.50
2022-12-20T05:09:07.440Z,49.97
2022-12-20T05:11:37.275Z,48.17
2022-12-20T05:14:07.482Z,44.60
2022-12-20T05:16:38.745Z,45.30
2022-12-20T05:19:08.822Z,45.13
2022-12-20T05:21:55.892Z,48.33
2022-12-20T05:24:42.754Z,44.07
2022-12-20T05:27:12.909Z,46.13
2022-12-20T05:29:42.682Z,51.20
2022-12-20T05:32:19.297Z,42.93
2022-12-20T05:34:50.590Z,48.50
2022-12-20T05:37:20.337Z,51.03
2022-12-20T05:39:50.842Z,45.47
2022-12-20T05:42:20.919Z,47.73
2022-12-20T05:44:51.904Z,42.40
2022-12-20T05:47:24.459Z,50.40
2022-12-20T05:49:55.912Z,58.60
2022-12-20T05:52:25.576Z,49.57
2022-12-20T05:54:55.486Z,50.40
2022-12-20T05:57:25.277Z,48.23
2022-12-20T05:59:55.546Z,55.50
2022-12-20T06:02:28.278Z,43.57
2022-12-20T06:04:59.297Z,57.50
2022-12-20T06:07:32.052Z,60.10
2022-12-20T06:10:01.683Z,59.67
2022-12-20T06:12:31.371Z,49.07
2022-12-20T06:15:01.252Z,58.93
2022-12-20T06:17:35.758Z,47.13
2022-12-20T06:20:06.500Z,53.77
2022-12-20T06:22:38.930Z,55.47
2022-12-20T06:25:10.965Z,43.10
2022-12-20T06:27:40.849Z,50.87
2022-12-20T06:30:12.206Z,56.07
2022-12-20T06:32:43.507Z,57.30
2022-12-20T06:35:13.597Z,50.60
2022-12-20T06:37:44.093Z,48.93
2022-12-20T06:40:15.738Z,50.40
2022-12-20T06:42:45.941Z,59.00
2022-12-20T06:45:15.569Z,56.40
2022-12-20T06:47:47.303Z,58.33
2022-12-20T06:50:17.709Z,56.80
2022-12-20T06:52:47.325Z,62.43
2022-12-20T06:55:17.573Z,52.43
2022-12-20T06:57:47.656Z,61.07
2022-12-20T07:00:18.794Z,55.40
2022-12-20T07:02:56.310Z,59.40
2022-12-20T07:05:28.482Z,64.77
2022-12-20T07:07:58.739Z,54.53
2022-12-20T07:10:28.498Z,54.60
2022-12-20T07:12:58.060Z,54.97
2022-12-20T07:15:27.873Z,53.33
2022-12-20T07:17:59.034Z,64.93
2022-12-20T07:20:28.909Z,50.30
2022-12-20T07:22:58.568Z,56.50
2022-12-20T07:25:28.223Z,60.50
2022-12-20T07:27:58.635Z,66.83
2022-12-20T07:30:28.534Z,50.80
2022-12-20T07:33:00.215Z,57.73
2022-12-20T07:35:29.530Z,57.57
2022-12-20T07:38:00.153Z,54.10
2022-12-20T07:40:29.986Z,53.37
2022-12-20T07:42:59.733Z,49.80
2022-12-20T07:45:29.720Z,41.83
2022-12-20T07:48:08.642Z,46.00
2022-12-20T07:50:42.584Z,48.00
2022-12-20T07:53:13.238Z,53.50
2022-12-20T07:55:43.401Z,54.13
2022-12-20T07:58:14.354Z,51.30
2022-12-20T08:00:44.330Z,48.15
2022-12-20T08:03:19.172Z,64.77
2022-12-20T08:05:53.264Z,48.37
2022-12-20T08:08:23.796Z,55.10
2022-12-20T08:11:03.567Z,54.70
2022-12-20T08:13:38.172Z,49.30
2022-12-20T08:16:27.417Z,54.10
2022-12-20T08:19:19.548Z,45.53
2022-12-20T08:21:50.642Z,58.63
2022-12-20T08:24:20.565Z,47.90
2022-12-20T08:26:50.627Z,48.03
2022-12-20T08:29:20.314Z,55.30
2022-12-20T08:31:52.427Z,44.33
2022-12-20T08:34:23.619Z,54.63
2022-12-20T08:36:53.458Z,49.27
2022-12-20T08:39:23.206Z,61.07
2022-12-20T08:41:53.134Z,46.20
2022-12-20T08:44:23.205Z,42.83
2022-12-20T08:46:54.446Z,42.80
2022-12-20T08:49:25.444Z,46.13
2022-12-20T08:51:55.184Z,50.17
2022-12-20T08:55:29.441Z,54.67
2022-12-20T09:03:11.508Z,51.67
2022-12-20T09:13:47.013Z,50.40
2022-12-20T09:16:18.343Z,47.37
2022-12-20T09:18:50.987Z,56.57
2022-12-20T09:21:25.029Z,48.57
2022-12-20T09:23:56.564Z,55.80
2022-12-20T09:26:27.721Z,56.40
2022-12-20T09:28:58.099Z,54.13
2022-12-20T09:31:29.987Z,50.70
2022-12-20T09:34:02.035Z,51.80
2022-12-20T09:36:33.433Z,50.70
2022-12-20T09:39:03.140Z,54.43
2022-12-20T09:41:43.416Z,56.03
2022-12-20T09:44:20.127Z,53.90
2022-12-20T09:47:01.366Z,48.87
2022-12-20T10:17:33.780Z,63.38
2022-12-20T10:20:10.957Z,63.03
2022-12-20T10:22:49.705Z,56.73
2022-12-20T10:25:23.396Z,45.53
2022-12-20T10:27:55.401Z,54.80
2022-12-20T10:30:27.790Z,54.60
2022-12-20T10:33:00.227Z,60.10
2022-12-20T10:35:32.781Z,56.50
2022-12-20T10:38:07.472Z,63.63
2022-12-20T10:43:44.897Z,69.47
2022-12-20T10:46:17.224Z,54.07
2022-12-20T10:48:51.288Z,58.50
2022-12-20T10:51:23.981Z,71.87
2022-12-20T10:54:01.644Z,54.17
2022-12-20T10:56:32.830Z,59.50
2022-12-20T10:59:36.419Z,58.47
2022-12-20T11:02:40.617Z,57.47
2022-12-20T11:05:34.354Z,57.27
2022-12-20T11:11:18.939Z,59.23
2022-12-20T11:14:02.430Z,49.23
2022-12-20T11:16:48.309Z,47.30
2022-12-20T11:19:43.633Z,59.07
2022-12-20T11:22:33.814Z,47.17
2022-12-20T11:25:15.286Z,51.70
2022-12-20T11:27:52.068Z,46.30
2022-12-20T11:30:22.846Z,51.20
2022-12-20T11:33:06.211Z,57.33
2022-12-20T11:35:43.677Z,53.90
2022-12-20T11:38:25.217Z,53.63
2022-12-20T11:41:00.354Z,53.57
2022-12-20T11:44:23.467Z,42.07
2022-12-20T11:46:50.097Z,64.30
2022-12-20T11:49:35.543Z,43.33
2022-12-20T11:52:10.049Z,50.63
2022-12-20T11:54:44.778Z,57.67
2022-12-20T11:57:19.103Z,52.70
2022-12-20T11:59:52.467Z,40.43
2022-12-20T12:02:28.568Z,49.37
2022-12-20T12:05:05.565Z,49.40
2022-12-20T12:07:37.453Z,70.07
2022-12-20T12:10:18.020Z,52.40
2022-12-20T12:12:49.418Z,49.17
2022-12-20T12:15:25.063Z,52.03
2022-12-20T12:18:00.233Z,53.40
2022-12-20T12:20:41.027Z,48.57
2022-12-20T12:23:17.949Z,53.13
2022-12-20T12:25:49.610Z,56.37
2022-12-20T12:28:21.538Z,57.93
2022-12-20T12:30:55.576Z,41.63
2022-12-20T12:33:38.155Z,46.40
2022-12-20T12:36:24.353Z,50.20
2022-12-20T12:39:27.585Z,44.00
2022-12-20T12:42:28.653Z,52.70
2022-12-20T12:45:00.732Z,47.80
2022-12-20T12:47:36.385Z,49.93
2022-12-20T12:50:09.865Z,45.20
2022-12-20T12:52:49.924Z,58.43
2022-12-20T12:55:44.076Z,42.43
2022-12-20T12:58:33.900Z,42.97
2022-12-20T13:01:08.785Z,50.33
2022-12-20T13:03:44.502Z,53.70
2022-12-20T13:06:53.537Z,42.30
2022-12-20T13:09:38.214Z,43.70
2022-12-20T13:12:53.412Z,46.80
2022-12-20T13:15:54.210Z,48.70
2022-12-20T13:18:27.503Z,44.90
2022-12-20T13:21:33.272Z,46.93
2022-12-20T13:24:37.802Z,59.03
2022-12-20T13:27:33.108Z,45.63
2022-12-20T13:30:28.070Z,50.10
2022-12-20T13:33:23.115Z,53.77
2022-12-20T13:36:33.734Z,47.00
2022-12-20T13:39:06.909Z,51.00
2022-12-20T14:01:40.026Z,35.60
2022-12-20T14:04:11.984Z,50.77
2022-12-20T14:06:42.132Z,49.27
2022-12-20T14:09:30.858Z,43.93
2022-12-20T14:12:06.719Z,46.33
2022-12-20T14:14:40.285Z,39.30
2022-12-20T14:17:26.119Z,49.20
2022-12-20T14:20:07.398Z,46.60
2022-12-20T14:22:38.501Z,40.80
2022-12-20T14:25:10.071Z,49.60
2022-12-20T14:27:39.963Z,44.90
2022-12-20T14:30:28.647Z,45.13
2022-12-20T14:33:00.323Z,42.97
2022-12-20T14:35:30.839Z,44.10
2022-12-20T14:38:04.584Z,49.97
2022-12-20T14:40:39.731Z,39.43
2022-12-20T14:43:46.054Z,55.63
2022-12-20T14:46:23.732Z,45.87
2022-12-20T15:12:02.291Z,43.43
2022-12-20T15:14:39.050Z,43.03
2022-12-20T15:17:13.503Z,40.10
2022-12-20T15:19:44.084Z,38.57
2022-12-20T15:22:32.851Z,43.47
2022-12-20T15:25:07.830Z,53.97
2022-12-20T15:27:47.116Z,45.30
2022-12-20T15:30:20.453Z,45.10
2022-12-20T15:36:35.161Z,41.27
2022-12-20T15:39:13.616Z,36.40
2022-12-20T15:41:47.334Z,39.70
2022-12-20T15:45:38.689Z,43.63
2022-12-20T15:48:15.568Z,48.73
2022-12-20T15:50:47.611Z,33.60
2022-12-20T15:53:23.069Z,47.53
2022-12-20T15:55:53.839Z,42.93
2022-12-20T15:58:24.175Z,50.40
2022-12-20T16:00:56.716Z,37.27
2022-12-20T16:03:31.338Z,37.77
2022-12-20T16:06:01.290Z,43.83
2022-12-20T16:08:31.215Z,38.43
2022-12-20T16:11:01.139Z,42.10
2022-12-20T16:13:31.620Z,49.43
2022-12-20T16:16:02.170Z,49.83
2022-12-20T16:18:34.822Z,39.60
2022-12-20T16:21:05.603Z,40.47
2022-12-20T16:23:35.203Z,39.10
2022-12-20T16:26:05.709Z,40.00
2022-12-20T16:28:35.700Z,39.90
2022-12-20T16:31:12.985Z,36.47
2022-12-20T16:33:45.257Z,34.97
2022-12-20T16:36:15.604Z,33.17
2022-12-20T16:38:46.866Z,43.00
2022-12-20T16:41:19.254Z,32.57
2022-12-20T16:43:50.853Z,35.87
2022-12-20T16:46:22.785Z,34.40
2022-12-20T16:48:54.645Z,36.43
2022-12-20T16:51:26.626Z,33.47
2022-12-20T16:56:49.613Z,33.77
2022-12-20T16:59:22.598Z,30.97
2022-12-20T17:01:54.871Z,39.57
2022-12-20T17:04:28.152Z,27.07
2022-12-20T17:06:58.070Z,35.43
2022-12-20T17:12:17.400Z,37.20
2022-12-20T17:14:48.290Z,36.53
2022-12-20T17:17:18.058Z,37.93
2022-12-20T17:19:49.512Z,34.20
2022-12-20T17:22:23.160Z,33.93
2022-12-20T17:24:53.083Z,37.70
2022-12-20T17:27:22.628Z,32.50
2022-12-20T17:29:53.934Z,30.03
2022-12-20T17:32:25.921Z,35.93
2022-12-20T17:34:58.695Z,34.43
2022-12-20T17:37:28.797Z,38.53
2022-12-20T17:39:58.711Z,38.67
2022-12-20T17:42:31.564Z,34.10
2022-12-20T17:45:01.991Z,43.03
2022-12-20T17:47:32.567Z,42.03
2022-12-20T17:50:05.669Z,43.60
2022-12-20T17:52:36.138Z,39.77
2022-12-20T17:55:08.543Z,37.10
2022-12-20T17:57:38.405Z,38.10
2022-12-20T18:00:12.404Z,47.53
2022-12-20T18:02:43.013Z,37.30
2022-12-20T18:05:16.379Z,42.80
2022-12-20T18:07:47.314Z,34.63
2022-12-20T18:10:17.546Z,29.97
2022-12-20T18:12:47.893Z,28.13
2022-12-20T18:15:19.559Z,27.13
2022-12-20T18:17:50.305Z,29.73
2022-12-20T18:20:21.421Z,28.67
2022-12-20T18:22:52.011Z,30.67
2022-12-20T18:25:22.180Z,28.17
2022-12-20T18:27:52.581Z,23.57
2022-12-20T18:30:22.540Z,26.67
2022-12-20T18:32:53.025Z,23.47
2022-12-20T18:35:24.884Z,23.97
2022-12-20T18:37:55.342Z,26.90
2022-12-20T18:40:26.031Z,24.97
2022-12-20T18:42:59.681Z,21.37
2022-12-20T18:45:36.731Z,22.97
2022-12-20T18:48:06.579Z,24.73
2022-12-20T18:50:39.368Z,24.03
2022-12-20T18:53:09.384Z,21.10
2022-12-20T18:55:38.934Z,26.40
2022-12-20T18:58:09.269Z,37.70
2022-12-20T19:00:39.843Z,26.50
2022-12-20T19:03:10.320Z,27.67
2022-12-20T19:05:42.239Z,25.63
2022-12-20T19:08:13.165Z,25.70
2022-12-20T19:10:43.105Z,23.97
2022-12-20T19:13:13.438Z,24.73
2022-12-20T19:15:43.329Z,22.50
2022-12-20T19:18:13.899Z,26.53
2022-12-20T19:20:45.760Z,24.07
2022-12-20T19:23:15.649Z,26.30
2022-12-20T19:25:45.685Z,29.43
2022-12-20T19:28:21.410Z,25.27
2022-12-20T19:30:51.731Z,34.27
2022-12-20T19:33:22.125Z,22.27
2022-12-20T19:35:56.076Z,26.37
2022-12-20T19:38:26.588Z,25.33
2022-12-20T19:40:56.327Z,24.90
2022-12-20T19:43:27.186Z,23.30
2022-12-20T19:45:59.797Z,25.87
2022-12-20T19:48:30.690Z,28.63
2022-12-20T19:51:05.335Z,30.13
2022-12-20T19:53:35.809Z,29.13
2022-12-20T19:56:07.863Z,23.60
2022-12-20T19:58:41.411Z,26.70
2022-12-20T20:01:13.359Z,32.07
2022-12-20T20:03:43.645Z,23.50
2022-12-20T20:06:16.070Z,22.67
2022-12-20T20:08:46.143Z,26.43
2022-12-20T20:11:16.670Z,24.93
2022-12-20T20:13:47.094Z,25.10
2022-12-20T20:16:22.242Z,24.47
2022-12-20T20:18:52.703Z,27.10
2022-12-20T20:21:25.224Z,27.10
2022-12-20T20:23:56.285Z,30.33
2022-12-20T20:26:29.586Z,28.83
2022-12-20T20:29:06.340Z,32.80
2022-12-20T20:31:37.627Z,30.70
2022-12-20T20:34:07.154Z,33.87
2022-12-20T20:36:38.951Z,27.60
2022-12-20T20:39:09.071Z,25.13
2022-12-20T20:41:39.582Z,26.23
2022-12-20T20:44:11.764Z,33.87
2022-12-20T20:46:42.297Z,32.87
2022-12-20T20:49:13.239Z,26.48
2022-12-20T20:51:44.466Z,31.23
2022-12-20T20:54:14.684Z,31.38
2022-12-20T20:56:44.864Z,32.10
2022-12-20T20:59:18.288Z,25.90
2022-12-20T21:01:49.484Z,31.23
2022-12-20T21:04:19.445Z,33.53
2022-12-20T21:06:50.982Z,27.00
2022-12-20T21:09:21.049Z,26.83
2022-12-20T21:11:51.558Z,26.63
2022-12-20T21:14:43.268Z,26.50
2022-12-20T21:17:12.073Z,30.53
2022-12-20T21:19:42.231Z,25.03
2022-12-20T21:22:14.533Z,29.50
2022-12-20T21:24:44.391Z,28.67
2022-12-20T21:27:14.929Z,32.63
2022-12-20T21:29:48.602Z,30.87
2022-12-20T21:32:21.123Z,29.87
2022-12-20T21:34:50.963Z,24.77
2022-12-20T21:37:22.239Z,28.20
2022-12-20T21:39:52.742Z,30.03
2022-12-20T21:42:23.080Z,25.43
2022-12-20T21:44:53.343Z,29.30
2022-12-20T21:47:23.653Z,23.73
2022-12-20T21:49:53.679Z,23.73
2022-12-20T21:52:24.490Z,21.30
2022-12-20T21:54:54.773Z,28.80
2022-12-20T21:57:24.497Z,23.53
2022-12-20T21:59:54.774Z,32.80
2022-12-20T22:02:24.754Z,32.83
2022-12-20T22:04:54.853Z,26.97
2022-12-20T22:07:26.113Z,29.37
2022-12-20T22:09:55.398Z,29.17
2022-12-20T22:12:25.587Z,30.07
2022-12-20T22:14:55.498Z,28.17
2022-12-20T22:17:26.238Z,28.53
2022-12-20T22:19:56.042Z,26.37
2022-12-20T22:22:28.940Z,30.00
2022-12-20T22:24:58.619Z,28.57
2022-12-20T22:27:28.589Z,29.57
2022-12-20T22:29:57.902Z,26.30
2022-12-20T22:32:28.293Z,30.63
2022-12-20T22:34:58.550Z,24.87
2022-12-20T22:37:35.556Z,24.07
2022-12-20T22:40:07.238Z,27.03
2022-12-20T22:42:37.463Z,26.17
2022-12-20T22:45:08.317Z,27.93
2022-12-20T22:47:38.803Z,26.43
2022-12-20T22:50:10.774Z,33.67
2022-12-20T22:52:42.853Z,29.93
2022-12-20T22:55:13.273Z,31.00
2022-12-20T22:57:43.430Z,31.77
2022-12-20T23:00:15.989Z,37.23
2022-12-20T23:02:46.713Z,31.17
2022-12-20T23:05:17.769Z,29.87
2022-12-20T23:07:48.888Z,26.90
2022-12-20T23:10:33.922Z,32.03
2022-12-20T23:13:21.394Z,32.47
2022-12-20T23:15:51.682Z,36.60
2022-12-20T23:18:21.924Z,28.57
2022-12-20T23:21:09.599Z,27.10
2022-12-20T23:23:41.289Z,30.20
2022-12-20T23:26:12.084Z,27.80
2022-12-20T23:28:42.055Z,27.30
2022-12-20T23:31:13.232Z,26.50
2022-12-20T23:33:43.490Z,26.63
2022-12-20T23:36:13.461Z,24.37
2022-12-20T23:38:44.693Z,29.60
2022-12-20T23:41:17.111Z,29.97
2022-12-20T23:43:47.254Z,35.50
2022-12-20T23:46:19.282Z,25.27
2022-12-20T23:48:49.413Z,26.27
2022-12-20T23:51:19.794Z,30.43
2022-12-20T23:53:52.523Z,30.63
2022-12-20T23:56:23.320Z,32.50
2022-12-20T23:58:55.263Z,27.00
